sensor_id;sensor_type;location;lat;lon;timestamp;P1;durP1;ratioP1;P2;durP2;ratioP2
73107;SDS011;61559;50.476;15.588;2023-02-22T00:00:14;7.90;;;2.80;;
73107;SDS011;61559;50.476;15.588;2023-02-22T00:03:10;3.60;;;2.00;;
73107;SDS011;61559;50.476;15.588;2023-02-22T00:05:43;2.10;;;1.60;;
73107;SDS011;61559;50.476;15.588;2023-02-22T00:08:15;2.60;;;1.60;;
73107;SDS011;61559;50.476;15.588;2023-02-22T00:10:48;3.60;;;1.80;;
73107;SDS011;61559;50.476;15.588;2023-02-22T00:13:19;3.50;;;1.90;;
73107;SDS011;61559;50.476;15.588;2023-02-22T00:15:51;5.40;;;2.00;;
73107;SDS011;61559;50.476;15.588;2023-02-22T00:18:22;5.00;;;2.10;;
73107;SDS011;61559;50.476;15.588;2023-02-22T00:20:55;4.30;;;2.20;;
73107;SDS011;61559;50.476;15.588;2023-02-22T00:23:29;4.10;;;2.30;;
73107;SDS011;61559;50.476;15.588;2023-02-22T00:26:00;4.70;;;2.20;;
73107;SDS011;61559;50.476;15.588;2023-02-22T00:28:31;4.20;;;2.10;;
73107;SDS011;61559;50.476;15.588;2023-02-22T00:31:04;2.80;;;1.60;;
73107;SDS011;61559;50.476;15.588;2023-02-22T00:33:36;3.40;;;1.40;;
73107;SDS011;61559;50.476;15.588;2023-02-22T00:36:09;3.60;;;1.50;;
73107;SDS011;61559;50.476;15.588;2023-02-22T00:38:41;3.30;;;1.50;;
73107;SDS011;61559;50.476;15.588;2023-02-22T00:41:12;2.30;;;1.30;;
73107;SDS011;61559;50.476;15.588;2023-02-22T00:43:43;3.90;;;1.50;;
73107;SDS011;61559;50.476;15.588;2023-02-22T00:46:15;3.40;;;1.70;;
73107;SDS011;61559;50.476;15.588;2023-02-22T00:51:16;3.50;;;1.90;;
73107;SDS011;61559;50.476;15.588;2023-02-22T00:58:46;5.90;;;2.00;;
73107;SDS011;61559;50.476;15.588;2023-02-22T01:03:48;5.40;;;2.40;;
73107;SDS011;61559;50.476;15.588;2023-02-22T01:06:19;5.00;;;2.40;;
73107;SDS011;61559;50.476;15.588;2023-02-22T01:08:50;5.40;;;2.90;;
73107;SDS011;61559;50.476;15.588;2023-02-22T01:11:22;5.30;;;2.60;;
73107;SDS011;61559;50.476;15.588;2023-02-22T01:16:22;8.10;;;3.50;;
73107;SDS011;61559;50.476;15.588;2023-02-22T01:18:54;12.60;;;4.00;;
73107;SDS011;61559;50.476;15.588;2023-02-22T01:21:25;6.90;;;3.20;;
73107;SDS011;61559;50.476;15.588;2023-02-22T01:23:56;6.80;;;3.40;;
73107;SDS011;61559;50.476;15.588;2023-02-22T01:26:27;5.10;;;2.70;;
73107;SDS011;61559;50.476;15.588;2023-02-22T01:31:27;14.30;;;5.50;;
73107;SDS011;61559;50.476;15.588;2023-02-22T01:33:59;8.60;;;4.10;;
73107;SDS011;61559;50.476;15.588;2023-02-22T01:36:30;8.20;;;3.10;;
73107;SDS011;61559;50.476;15.588;2023-02-22T01:39:01;16.60;;;4.20;;
73107;SDS011;61559;50.476;15.588;2023-02-22T01:47:00;11.60;;;4.90;;
73107;SDS011;61559;50.476;15.588;2023-02-22T01:49:32;21.80;;;6.90;;
73107;SDS011;61559;50.476;15.588;2023-02-22T01:52:10;9.30;;;4.40;;
73107;SDS011;61559;50.476;15.588;2023-02-22T01:54:46;8.70;;;4.40;;
73107;SDS011;61559;50.476;15.588;2023-02-22T01:57:21;15.40;;;3.60;;
73107;SDS011;61559;50.476;15.588;2023-02-22T01:59:57;10.20;;;2.70;;
73107;SDS011;61559;50.476;15.588;2023-02-22T02:02:37;20.40;;;3.10;;
73107;SDS011;61559;50.476;15.588;2023-02-22T02:05:11;4.70;;;2.30;;
73107;SDS011;61559;50.476;15.588;2023-02-22T02:07:43;7.00;;;2.60;;
73107;SDS011;61559;50.476;15.588;2023-02-22T02:10:14;8.40;;;2.80;;
73107;SDS011;61559;50.476;15.588;2023-02-22T02:12:46;7.10;;;3.30;;
73107;SDS011;61559;50.476;15.588;2023-02-22T02:15:21;7.30;;;3.60;;
73107;SDS011;61559;50.476;15.588;2023-02-22T02:17:56;10.20;;;3.20;;
73107;SDS011;61559;50.476;15.588;2023-02-22T02:20:31;17.90;;;3.60;;
73107;SDS011;61559;50.476;15.588;2023-02-22T02:23:16;7.90;;;2.90;;
73107;SDS011;61559;50.476;15.588;2023-02-22T02:26:11;7.60;;;2.80;;
73107;SDS011;61559;50.476;15.588;2023-02-22T02:29:12;6.00;;;2.10;;
73107;SDS011;61559;50.476;15.588;2023-02-22T02:32:22;3.60;;;2.00;;
73107;SDS011;61559;50.476;15.588;2023-02-22T02:35:05;3.50;;;1.90;;
73107;SDS011;61559;50.476;15.588;2023-02-22T02:37:44;3.70;;;2.00;;
73107;SDS011;61559;50.476;15.588;2023-02-22T02:40:22;4.40;;;1.90;;
73107;SDS011;61559;50.476;15.588;2023-02-22T02:43:02;4.40;;;2.20;;
73107;SDS011;61559;50.476;15.588;2023-02-22T02:45:39;4.00;;;1.90;;
73107;SDS011;61559;50.476;15.588;2023-02-22T02:48:16;3.30;;;2.20;;
73107;SDS011;61559;50.476;15.588;2023-02-22T02:50:50;4.40;;;1.90;;
73107;SDS011;61559;50.476;15.588;2023-02-22T02:53:26;5.00;;;2.50;;
73107;SDS011;61559;50.476;15.588;2023-02-22T02:56:01;6.60;;;2.70;;
73107;SDS011;61559;50.476;15.588;2023-02-22T02:58:43;6.00;;;2.50;;
73107;SDS011;61559;50.476;15.588;2023-02-22T03:01:19;4.20;;;2.30;;
73107;SDS011;61559;50.476;15.588;2023-02-22T03:04:15;10.60;;;1.80;;
73107;SDS011;61559;50.476;15.588;2023-02-22T03:06:56;3.20;;;1.80;;
73107;SDS011;61559;50.476;15.588;2023-02-22T03:09:43;4.70;;;2.20;;
73107;SDS011;61559;50.476;15.588;2023-02-22T03:12:32;3.70;;;2.30;;
73107;SDS011;61559;50.476;15.588;2023-02-22T03:15:16;4.00;;;2.30;;
73107;SDS011;61559;50.476;15.588;2023-02-22T03:17:58;6.80;;;3.10;;
73107;SDS011;61559;50.476;15.588;2023-02-22T03:20:36;6.50;;;2.80;;
73107;SDS011;61559;50.476;15.588;2023-02-22T03:23:14;7.30;;;3.10;;
73107;SDS011;61559;50.476;15.588;2023-02-22T03:25:54;4.90;;;2.60;;
73107;SDS011;61559;50.476;15.588;2023-02-22T03:28:29;5.60;;;2.70;;
73107;SDS011;61559;50.476;15.588;2023-02-22T03:31:06;5.60;;;2.60;;
73107;SDS011;61559;50.476;15.588;2023-02-22T03:33:40;8.20;;;3.00;;
73107;SDS011;61559;50.476;15.588;2023-02-22T03:36:14;5.40;;;2.50;;
73107;SDS011;61559;50.476;15.588;2023-02-22T03:38:52;7.20;;;3.20;;
73107;SDS011;61559;50.476;15.588;2023-02-22T03:41:26;5.40;;;3.00;;
73107;SDS011;61559;50.476;15.588;2023-02-22T03:43:59;11.00;;;4.30;;
73107;SDS011;61559;50.476;15.588;2023-02-22T03:46:35;48.40;;;13.90;;
73107;SDS011;61559;50.476;15.588;2023-02-22T03:49:10;13.40;;;5.90;;
73107;SDS011;61559;50.476;15.588;2023-02-22T03:51:47;11.60;;;4.20;;
73107;SDS011;61559;50.476;15.588;2023-02-22T03:54:18;13.80;;;4.60;;
73107;SDS011;61559;50.476;15.588;2023-02-22T03:56:51;12.40;;;4.50;;
73107;SDS011;61559;50.476;15.588;2023-02-22T03:59:25;13.10;;;5.30;;
73107;SDS011;61559;50.476;15.588;2023-02-22T04:01:56;10.80;;;4.70;;
73107;SDS011;61559;50.476;15.588;2023-02-22T04:06:57;6.30;;;2.90;;
73107;SDS011;61559;50.476;15.588;2023-02-22T04:09:29;7.70;;;3.20;;
73107;SDS011;61559;50.476;15.588;2023-02-22T04:14:29;4.80;;;2.40;;
73107;SDS011;61559;50.476;15.588;2023-02-22T04:17:00;8.30;;;3.10;;
73107;SDS011;61559;50.476;15.588;2023-02-22T04:22:01;8.80;;;3.40;;
73107;SDS011;61559;50.476;15.588;2023-02-22T04:24:32;15.30;;;5.20;;
73107;SDS011;61559;50.476;15.588;2023-02-22T04:27:03;22.20;;;7.70;;
73107;SDS011;61559;50.476;15.588;2023-02-22T04:32:04;9.70;;;3.70;;
73107;SDS011;61559;50.476;15.588;2023-02-22T04:34:36;8.10;;;3.60;;
73107;SDS011;61559;50.476;15.588;2023-02-22T04:39:37;7.00;;;2.40;;
73107;SDS011;61559;50.476;15.588;2023-02-22T04:42:09;3.60;;;2.30;;
73107;SDS011;61559;50.476;15.588;2023-02-22T04:44:40;3.40;;;1.60;;
73107;SDS011;61559;50.476;15.588;2023-02-22T04:47:11;4.30;;;1.90;;
73107;SDS011;61559;50.476;15.588;2023-02-22T04:49:42;4.70;;;2.40;;
73107;SDS011;61559;50.476;15.588;2023-02-22T04:52:13;3.90;;;2.30;;
73107;SDS011;61559;50.476;15.588;2023-02-22T04:54:44;3.60;;;1.70;;
73107;SDS011;61559;50.476;15.588;2023-02-22T04:57:16;3.10;;;2.20;;
73107;SDS011;61559;50.476;15.588;2023-02-22T04:59:47;3.80;;;2.00;;
73107;SDS011;61559;50.476;15.588;2023-02-22T05:02:18;8.10;;;2.50;;
73107;SDS011;61559;50.476;15.588;2023-02-22T05:04:50;4.60;;;2.40;;
73107;SDS011;61559;50.476;15.588;2023-02-22T05:09:50;4.40;;;2.30;;
73107;SDS011;61559;50.476;15.588;2023-02-22T05:12:21;4.00;;;2.00;;
73107;SDS011;61559;50.476;15.588;2023-02-22T05:14:54;4.60;;;2.30;;
73107;SDS011;61559;50.476;15.588;2023-02-22T05:17:26;5.60;;;2.80;;
73107;SDS011;61559;50.476;15.588;2023-02-22T05:19:57;5.60;;;2.80;;
73107;SDS011;61559;50.476;15.588;2023-02-22T05:22:28;6.20;;;2.80;;
73107;SDS011;61559;50.476;15.588;2023-02-22T05:25:00;27.60;;;9.50;;
73107;SDS011;61559;50.476;15.588;2023-02-22T05:27:31;16.60;;;6.60;;
73107;SDS011;61559;50.476;15.588;2023-02-22T05:30:03;17.20;;;7.60;;
73107;SDS011;61559;50.476;15.588;2023-02-22T05:32:36;16.30;;;7.10;;
73107;SDS011;61559;50.476;15.588;2023-02-22T05:35:08;31.80;;;12.20;;
73107;SDS011;61559;50.476;15.588;2023-02-22T05:37:39;24.80;;;14.70;;
73107;SDS011;61559;50.476;15.588;2023-02-22T05:40:11;31.10;;;17.00;;
73107;SDS011;61559;50.476;15.588;2023-02-22T05:42:42;25.60;;;12.20;;
73107;SDS011;61559;50.476;15.588;2023-02-22T05:45:16;32.70;;;17.60;;
73107;SDS011;61559;50.476;15.588;2023-02-22T05:47:48;36.90;;;20.00;;
73107;SDS011;61559;50.476;15.588;2023-02-22T05:50:20;33.80;;;18.90;;
73107;SDS011;61559;50.476;15.588;2023-02-22T05:52:51;32.60;;;18.30;;
73107;SDS011;61559;50.476;15.588;2023-02-22T05:55:23;28.40;;;15.30;;
73107;SDS011;61559;50.476;15.588;2023-02-22T05:57:54;24.00;;;13.60;;
73107;SDS011;61559;50.476;15.588;2023-02-22T06:00:26;18.60;;;11.00;;
73107;SDS011;61559;50.476;15.588;2023-02-22T06:02:59;12.10;;;4.60;;
73107;SDS011;61559;50.476;15.588;2023-02-22T06:05:33;9.10;;;4.50;;
73107;SDS011;61559;50.476;15.588;2023-02-22T06:08:05;10.70;;;5.30;;
73107;SDS011;61559;50.476;15.588;2023-02-22T06:10:36;6.20;;;3.70;;
73107;SDS011;61559;50.476;15.588;2023-02-22T06:15:36;6.10;;;3.00;;
73107;SDS011;61559;50.476;15.588;2023-02-22T06:18:07;4.10;;;2.90;;
73107;SDS011;61559;50.476;15.588;2023-02-22T06:20:39;6.30;;;4.10;;
73107;SDS011;61559;50.476;15.588;2023-02-22T06:23:10;7.60;;;3.40;;
73107;SDS011;61559;50.476;15.588;2023-02-22T06:25:41;10.80;;;6.00;;
73107;SDS011;61559;50.476;15.588;2023-02-22T06:30:41;4.00;;;2.40;;
73107;SDS011;61559;50.476;15.588;2023-02-22T06:33:13;3.80;;;2.40;;
73107;SDS011;61559;50.476;15.588;2023-02-22T06:35:44;5.10;;;2.30;;
73107;SDS011;61559;50.476;15.588;2023-02-22T06:40:50;5.50;;;2.20;;
73107;SDS011;61559;50.476;15.588;2023-02-22T06:43:23;4.30;;;2.00;;
73107;SDS011;61559;50.476;15.588;2023-02-22T06:48:23;4.00;;;1.90;;
73107;SDS011;61559;50.476;15.588;2023-02-22T06:50:54;4.90;;;2.30;;
73107;SDS011;61559;50.476;15.588;2023-02-22T06:53:25;4.60;;;2.40;;
73107;SDS011;61559;50.476;15.588;2023-02-22T06:55:56;4.70;;;2.50;;
73107;SDS011;61559;50.476;15.588;2023-02-22T06:58:27;6.60;;;2.50;;
73107;SDS011;61559;50.476;15.588;2023-02-22T07:00:58;3.60;;;2.20;;
73107;SDS011;61559;50.476;15.588;2023-02-22T07:03:31;3.50;;;1.60;;
73107;SDS011;61559;50.476;15.588;2023-02-22T07:06:02;2.90;;;1.30;;
73107;SDS011;61559;50.476;15.588;2023-02-22T07:08:34;2.80;;;1.60;;
73107;SDS011;61559;50.476;15.588;2023-02-22T07:11:06;3.60;;;1.80;;
73107;SDS011;61559;50.476;15.588;2023-02-22T07:13:37;2.50;;;1.20;;
73107;SDS011;61559;50.476;15.588;2023-02-22T07:16:09;2.50;;;1.50;;
73107;SDS011;61559;50.476;15.588;2023-02-22T07:21:10;2.60;;;1.00;;
73107;SDS011;61559;50.476;15.588;2023-02-22T07:23:41;1.90;;;1.00;;
73107;SDS011;61559;50.476;15.588;2023-02-22T07:26:18;2.20;;;1.00;;
73107;SDS011;61559;50.476;15.588;2023-02-22T07:28:50;2.30;;;0.90;;
73107;SDS011;61559;50.476;15.588;2023-02-22T07:31:21;2.80;;;0.80;;
73107;SDS011;61559;50.476;15.588;2023-02-22T07:33:52;2.50;;;1.20;;
73107;SDS011;61559;50.476;15.588;2023-02-22T07:36:24;1.20;;;0.70;;
73107;SDS011;61559;50.476;15.588;2023-02-22T07:38:55;1.20;;;0.60;;
73107;SDS011;61559;50.476;15.588;2023-02-22T07:41:26;1.30;;;0.60;;
73107;SDS011;61559;50.476;15.588;2023-02-22T07:43:58;2.20;;;0.70;;
73107;SDS011;61559;50.476;15.588;2023-02-22T07:46:29;1.30;;;0.60;;
73107;SDS011;61559;50.476;15.588;2023-02-22T07:49:00;1.70;;;0.80;;
73107;SDS011;61559;50.476;15.588;2023-02-22T07:51:32;1.30;;;0.90;;
73107;SDS011;61559;50.476;15.588;2023-02-22T07:54:03;0.70;;;0.70;;
73107;SDS011;61559;50.476;15.588;2023-02-22T07:56:34;1.30;;;0.80;;
73107;SDS011;61559;50.476;15.588;2023-02-22T07:59:05;1.50;;;0.90;;
73107;SDS011;61559;50.476;15.588;2023-02-22T08:01:36;2.90;;;0.90;;
73107;SDS011;61559;50.476;15.588;2023-02-22T08:04:08;1.70;;;1.00;;
73107;SDS011;61559;50.476;15.588;2023-02-22T08:06:39;1.50;;;0.80;;
73107;SDS011;61559;50.476;15.588;2023-02-22T08:09:13;1.90;;;1.00;;
73107;SDS011;61559;50.476;15.588;2023-02-22T08:11:44;2.90;;;1.50;;
73107;SDS011;61559;50.476;15.588;2023-02-22T08:16:45;3.30;;;1.00;;
73107;SDS011;61559;50.476;15.588;2023-02-22T08:21:46;2.10;;;1.20;;
73107;SDS011;61559;50.476;15.588;2023-02-22T08:24:18;3.60;;;1.40;;
73107;SDS011;61559;50.476;15.588;2023-02-22T08:26:49;2.50;;;1.40;;
73107;SDS011;61559;50.476;15.588;2023-02-22T08:29:20;2.50;;;1.40;;
73107;SDS011;61559;50.476;15.588;2023-02-22T08:31:53;2.20;;;1.40;;
73107;SDS011;61559;50.476;15.588;2023-02-22T08:34:24;3.50;;;1.50;;
73107;SDS011;61559;50.476;15.588;2023-02-22T08:36:56;3.70;;;1.50;;
73107;SDS011;61559;50.476;15.588;2023-02-22T08:41:56;3.70;;;1.30;;
73107;SDS011;61559;50.476;15.588;2023-02-22T08:46:57;2.50;;;1.50;;
73107;SDS011;61559;50.476;15.588;2023-02-22T08:49:28;2.40;;;1.40;;
73107;SDS011;61559;50.476;15.588;2023-02-22T08:51:59;3.60;;;1.80;;
73107;SDS011;61559;50.476;15.588;2023-02-22T08:54:30;3.50;;;2.10;;
73107;SDS011;61559;50.476;15.588;2023-02-22T08:57:01;4.10;;;1.60;;
73107;SDS011;61559;50.476;15.588;2023-02-22T08:59:33;3.70;;;2.30;;
73107;SDS011;61559;50.476;15.588;2023-02-22T09:04:33;3.90;;;2.10;;
73107;SDS011;61559;50.476;15.588;2023-02-22T09:09:34;5.70;;;2.30;;
73107;SDS011;61559;50.476;15.588;2023-02-22T09:12:05;3.60;;;1.80;;
73107;SDS011;61559;50.476;15.588;2023-02-22T09:14:37;4.50;;;2.40;;
73107;SDS011;61559;50.476;15.588;2023-02-22T09:17:10;4.50;;;2.20;;
73107;SDS011;61559;50.476;15.588;2023-02-22T09:22:12;3.70;;;2.10;;
73107;SDS011;61559;50.476;15.588;2023-02-22T09:24:43;5.50;;;2.80;;
73107;SDS011;61559;50.476;15.588;2023-02-22T09:27:15;3.50;;;2.00;;
73107;SDS011;61559;50.476;15.588;2023-02-22T09:29:48;4.40;;;2.60;;
73107;SDS011;61559;50.476;15.588;2023-02-22T09:32:20;3.90;;;2.30;;
73107;SDS011;61559;50.476;15.588;2023-02-22T09:34:52;4.90;;;2.20;;
73107;SDS011;61559;50.476;15.588;2023-02-22T09:37:23;6.70;;;3.50;;
73107;SDS011;61559;50.476;15.588;2023-02-22T09:39:54;3.40;;;2.30;;
73107;SDS011;61559;50.476;15.588;2023-02-22T09:42:27;6.80;;;3.50;;
73107;SDS011;61559;50.476;15.588;2023-02-22T09:45:05;6.70;;;3.70;;
73107;SDS011;61559;50.476;15.588;2023-02-22T09:47:42;8.00;;;4.10;;
73107;SDS011;61559;50.476;15.588;2023-02-22T09:50:17;5.90;;;3.10;;
73107;SDS011;61559;50.476;15.588;2023-02-22T09:52:54;5.80;;;3.20;;
73107;SDS011;61559;50.476;15.588;2023-02-22T09:55:32;8.00;;;3.00;;
73107;SDS011;61559;50.476;15.588;2023-02-22T10:00:56;5.80;;;2.60;;
73107;SDS011;61559;50.476;15.588;2023-02-22T10:03:34;6.60;;;3.10;;
73107;SDS011;61559;50.476;15.588;2023-02-22T10:06:11;7.50;;;3.60;;
73107;SDS011;61559;50.476;15.588;2023-02-22T10:08:48;7.90;;;4.90;;
73107;SDS011;61559;50.476;15.588;2023-02-22T10:11:27;8.20;;;4.40;;
73107;SDS011;61559;50.476;15.588;2023-02-22T10:14:18;5.70;;;4.00;;
73107;SDS011;61559;50.476;15.588;2023-02-22T10:17:14;5.50;;;3.70;;
73107;SDS011;61559;50.476;15.588;2023-02-22T10:19:57;7.70;;;4.40;;
73107;SDS011;61559;50.476;15.588;2023-02-22T10:22:43;8.60;;;5.10;;
73107;SDS011;61559;50.476;15.588;2023-02-22T10:25:24;9.90;;;4.50;;
73107;SDS011;61559;50.476;15.588;2023-02-22T10:28:03;7.40;;;3.70;;
73107;SDS011;61559;50.476;15.588;2023-02-22T10:30:40;8.60;;;4.20;;
73107;SDS011;61559;50.476;15.588;2023-02-22T10:33:22;4.50;;;3.30;;
73107;SDS011;61559;50.476;15.588;2023-02-22T10:35:56;4.20;;;2.90;;
73107;SDS011;61559;50.476;15.588;2023-02-22T10:38:28;6.40;;;3.20;;
73107;SDS011;61559;50.476;15.588;2023-02-22T10:41:03;5.90;;;3.60;;
73107;SDS011;61559;50.476;15.588;2023-02-22T10:43:52;7.60;;;4.10;;
73107;SDS011;61559;50.476;15.588;2023-02-22T10:46:24;5.10;;;2.70;;
73107;SDS011;61559;50.476;15.588;2023-02-22T10:48:59;4.70;;;3.00;;
73107;SDS011;61559;50.476;15.588;2023-02-22T10:51:34;3.70;;;3.00;;
73107;SDS011;61559;50.476;15.588;2023-02-22T10:54:16;5.40;;;2.80;;
73107;SDS011;61559;50.476;15.588;2023-02-22T10:56:54;5.50;;;3.50;;
73107;SDS011;61559;50.476;15.588;2023-02-22T10:59:28;7.30;;;3.40;;
73107;SDS011;61559;50.476;15.588;2023-02-22T11:02:07;7.70;;;3.70;;
73107;SDS011;61559;50.476;15.588;2023-02-22T11:04:57;6.70;;;3.20;;
73107;SDS011;61559;50.476;15.588;2023-02-22T11:07:29;5.10;;;2.70;;
73107;SDS011;61559;50.476;15.588;2023-02-22T11:10:02;6.90;;;3.10;;
73107;SDS011;61559;50.476;15.588;2023-02-22T11:12:36;5.00;;;3.10;;
73107;SDS011;61559;50.476;15.588;2023-02-22T11:15:28;6.00;;;3.10;;
73107;SDS011;61559;50.476;15.588;2023-02-22T11:17:59;4.70;;;2.90;;
73107;SDS011;61559;50.476;15.588;2023-02-22T11:20:32;6.30;;;3.50;;
73107;SDS011;61559;50.476;15.588;2023-02-22T11:23:07;5.90;;;3.50;;
73107;SDS011;61559;50.476;15.588;2023-02-22T11:25:40;5.80;;;3.10;;
73107;SDS011;61559;50.476;15.588;2023-02-22T11:28:13;6.40;;;3.10;;
73107;SDS011;61559;50.476;15.588;2023-02-22T11:30:58;4.00;;;2.70;;
73107;SDS011;61559;50.476;15.588;2023-02-22T11:33:40;6.10;;;2.70;;
73107;SDS011;61559;50.476;15.588;2023-02-22T11:36:30;6.20;;;3.20;;
73107;SDS011;61559;50.476;15.588;2023-02-22T11:39:05;4.50;;;2.70;;
73107;SDS011;61559;50.476;15.588;2023-02-22T11:41:51;4.40;;;2.40;;
73107;SDS011;61559;50.476;15.588;2023-02-22T11:44:24;6.10;;;2.60;;
73107;SDS011;61559;50.476;15.588;2023-02-22T11:46:59;3.60;;;2.30;;
73107;SDS011;61559;50.476;15.588;2023-02-22T11:49:34;3.90;;;2.30;;
73107;SDS011;61559;50.476;15.588;2023-02-22T11:52:11;10.00;;;4.40;;
73107;SDS011;61559;50.476;15.588;2023-02-22T11:58:12;12.30;;;5.10;;
73107;SDS011;61559;50.476;15.588;2023-02-22T12:00:56;4.60;;;2.70;;
73107;SDS011;61559;50.476;15.588;2023-02-22T12:03:42;4.20;;;2.60;;
73107;SDS011;61559;50.476;15.588;2023-02-22T12:06:29;7.10;;;3.30;;
73107;SDS011;61559;50.476;15.588;2023-02-22T12:09:12;4.90;;;2.50;;
73107;SDS011;61559;50.476;15.588;2023-02-22T12:11:52;4.80;;;2.50;;
73107;SDS011;61559;50.476;15.588;2023-02-22T12:14:35;5.30;;;2.40;;
73107;SDS011;61559;50.476;15.588;2023-02-22T12:17:20;4.40;;;2.60;;
73107;SDS011;61559;50.476;15.588;2023-02-22T12:20:02;7.00;;;3.90;;
73107;SDS011;61559;50.476;15.588;2023-02-22T12:22:43;5.60;;;3.50;;
73107;SDS011;61559;50.476;15.588;2023-02-22T12:25:22;5.10;;;2.50;;
73107;SDS011;61559;50.476;15.588;2023-02-22T12:27:57;5.00;;;2.70;;
73107;SDS011;61559;50.476;15.588;2023-02-22T12:30:51;6.30;;;2.80;;
73107;SDS011;61559;50.476;15.588;2023-02-22T12:33:26;3.80;;;2.40;;
73107;SDS011;61559;50.476;15.588;2023-02-22T12:36:07;6.50;;;2.50;;
73107;SDS011;61559;50.476;15.588;2023-02-22T12:38:41;4.80;;;2.80;;
73107;SDS011;61559;50.476;15.588;2023-02-22T12:41:17;7.20;;;3.30;;
73107;SDS011;61559;50.476;15.588;2023-02-22T12:43:57;6.50;;;3.40;;
73107;SDS011;61559;50.476;15.588;2023-02-22T12:46:33;6.20;;;3.40;;
73107;SDS011;61559;50.476;15.588;2023-02-22T12:49:10;4.40;;;2.90;;
73107;SDS011;61559;50.476;15.588;2023-02-22T12:51:51;5.70;;;2.80;;
73107;SDS011;61559;50.476;15.588;2023-02-22T12:54:47;3.60;;;2.70;;
73107;SDS011;61559;50.476;15.588;2023-02-22T12:57:26;3.70;;;2.20;;
73107;SDS011;61559;50.476;15.588;2023-02-22T13:00:08;6.50;;;2.50;;
73107;SDS011;61559;50.476;15.588;2023-02-22T13:02:49;4.50;;;2.60;;
73107;SDS011;61559;50.476;15.588;2023-02-22T13:05:25;3.10;;;1.80;;
73107;SDS011;61559;50.476;15.588;2023-02-22T13:08:07;3.40;;;2.30;;
73107;SDS011;61559;50.476;15.588;2023-02-22T13:10:55;3.50;;;2.10;;
73107;SDS011;61559;50.476;15.588;2023-02-22T13:13:35;4.40;;;2.80;;
73107;SDS011;61559;50.476;15.588;2023-02-22T13:16:24;3.60;;;2.20;;
73107;SDS011;61559;50.476;15.588;2023-02-22T13:19:01;4.10;;;2.30;;
73107;SDS011;61559;50.476;15.588;2023-02-22T13:21:39;3.30;;;1.90;;
73107;SDS011;61559;50.476;15.588;2023-02-22T13:24:17;3.20;;;1.70;;
73107;SDS011;61559;50.476;15.588;2023-02-22T13:26:54;3.90;;;2.20;;
73107;SDS011;61559;50.476;15.588;2023-02-22T13:29:29;3.50;;;2.00;;
73107;SDS011;61559;50.476;15.588;2023-02-22T13:35:00;3.30;;;2.10;;
73107;SDS011;61559;50.476;15.588;2023-02-22T13:37:54;4.10;;;2.40;;
73107;SDS011;61559;50.476;15.588;2023-02-22T13:40:52;3.50;;;2.20;;
73107;SDS011;61559;50.476;15.588;2023-02-22T13:43:45;2.80;;;1.70;;
73107;SDS011;61559;50.476;15.588;2023-02-22T13:47:04;2.80;;;1.90;;
73107;SDS011;61559;50.476;15.588;2023-02-22T13:53:02;2.90;;;2.00;;
73107;SDS011;61559;50.476;15.588;2023-02-22T13:55:42;2.90;;;1.70;;
73107;SDS011;61559;50.476;15.588;2023-02-22T13:58:27;2.70;;;1.60;;
73107;SDS011;61559;50.476;15.588;2023-02-22T14:00:58;3.10;;;1.80;;
73107;SDS011;61559;50.476;15.588;2023-02-22T14:03:31;4.70;;;2.90;;
73107;SDS011;61559;50.476;15.588;2023-02-22T14:06:09;3.10;;;2.30;;
73107;SDS011;61559;50.476;15.588;2023-02-22T14:09:02;2.70;;;1.40;;
73107;SDS011;61559;50.476;15.588;2023-02-22T14:11:46;4.40;;;1.80;;
73107;SDS011;61559;50.476;15.588;2023-02-22T14:14:24;2.70;;;1.80;;
73107;SDS011;61559;50.476;15.588;2023-02-22T14:20:16;3.40;;;1.50;;
73107;SDS011;61559;50.476;15.588;2023-02-22T14:26:07;2.30;;;1.40;;
73107;SDS011;61559;50.476;15.588;2023-02-22T14:28:43;3.20;;;1.30;;
73107;SDS011;61559;50.476;15.588;2023-02-22T14:31:22;2.40;;;1.40;;
73107;SDS011;61559;50.476;15.588;2023-02-22T14:34:05;2.10;;;1.40;;
73107;SDS011;61559;50.476;15.588;2023-02-22T14:36:43;3.00;;;1.40;;
73107;SDS011;61559;50.476;15.588;2023-02-22T14:39:24;2.30;;;1.50;;
73107;SDS011;61559;50.476;15.588;2023-02-22T14:42:01;3.70;;;1.60;;
73107;SDS011;61559;50.476;15.588;2023-02-22T14:44:39;1.20;;;1.00;;
73107;SDS011;61559;50.476;15.588;2023-02-22T14:47:18;2.00;;;1.00;;
73107;SDS011;61559;50.476;15.588;2023-02-22T14:49:58;2.20;;;1.20;;
73107;SDS011;61559;50.476;15.588;2023-02-22T14:52:36;1.30;;;0.80;;
73107;SDS011;61559;50.476;15.588;2023-02-22T14:55:16;2.00;;;1.00;;
73107;SDS011;61559;50.476;15.588;2023-02-22T14:57:53;2.00;;;1.00;;
73107;SDS011;61559;50.476;15.588;2023-02-22T15:00:37;2.10;;;0.90;;
73107;SDS011;61559;50.476;15.588;2023-02-22T15:03:17;4.40;;;2.50;;
73107;SDS011;61559;50.476;15.588;2023-02-22T15:08:36;1.70;;;0.80;;
73107;SDS011;61559;50.476;15.588;2023-02-22T15:11:18;2.20;;;1.10;;
73107;SDS011;61559;50.476;15.588;2023-02-22T15:13:58;1.90;;;0.80;;
73107;SDS011;61559;50.476;15.588;2023-02-22T15:16:31;1.20;;;0.80;;
73107;SDS011;61559;50.476;15.588;2023-02-22T15:19:06;1.80;;;1.00;;
73107;SDS011;61559;50.476;15.588;2023-02-22T15:21:40;0.60;;;0.60;;
73107;SDS011;61559;50.476;15.588;2023-02-22T15:24:19;1.00;;;0.70;;
73107;SDS011;61559;50.476;15.588;2023-02-22T15:26:53;3.90;;;1.80;;
73107;SDS011;61559;50.476;15.588;2023-02-22T15:29:34;21.20;;;11.50;;
73107;SDS011;61559;50.476;15.588;2023-02-22T15:32:18;28.00;;;13.70;;
73107;SDS011;61559;50.476;15.588;2023-02-22T15:35:14;29.80;;;14.20;;
73107;SDS011;61559;50.476;15.588;2023-02-22T15:40:26;3.20;;;1.90;;
73107;SDS011;61559;50.476;15.588;2023-02-22T15:43:02;2.00;;;1.40;;
73107;SDS011;61559;50.476;15.588;2023-02-22T15:45:39;1.80;;;0.70;;
73107;SDS011;61559;50.476;15.588;2023-02-22T15:48:12;1.00;;;0.70;;
73107;SDS011;61559;50.476;15.588;2023-02-22T15:53:42;1.40;;;1.20;;
73107;SDS011;61559;50.476;15.588;2023-02-22T15:56:15;3.80;;;1.50;;
73107;SDS011;61559;50.476;15.588;2023-02-22T15:58:57;1.40;;;0.90;;
73107;SDS011;61559;50.476;15.588;2023-02-22T16:01:31;1.80;;;1.00;;
73107;SDS011;61559;50.476;15.588;2023-02-22T16:04:15;1.60;;;1.10;;
73107;SDS011;61559;50.476;15.588;2023-02-22T16:06:48;29.80;;;8.10;;
73107;SDS011;61559;50.476;15.588;2023-02-22T16:09:21;15.80;;;4.90;;
73107;SDS011;61559;50.476;15.588;2023-02-22T16:12:07;5.20;;;2.40;;
73107;SDS011;61559;50.476;15.588;2023-02-22T16:14:51;7.40;;;2.80;;
73107;SDS011;61559;50.476;15.588;2023-02-22T16:17:26;2.50;;;1.00;;
73107;SDS011;61559;50.476;15.588;2023-02-22T16:26:17;1.50;;;1.10;;
73107;SDS011;61559;50.476;15.588;2023-02-22T16:28:54;1.50;;;1.20;;
73107;SDS011;61559;50.476;15.588;2023-02-22T16:31:28;4.90;;;1.40;;
73107;SDS011;61559;50.476;15.588;2023-02-22T16:34:01;2.80;;;1.50;;
73107;SDS011;61559;50.476;15.588;2023-02-22T16:36:37;1.50;;;1.30;;
73107;SDS011;61559;50.476;15.588;2023-02-22T16:39:12;1.90;;;1.20;;
73107;SDS011;61559;50.476;15.588;2023-02-22T16:41:48;2.50;;;1.70;;
73107;SDS011;61559;50.476;15.588;2023-02-22T16:44:20;2.50;;;1.30;;
73107;SDS011;61559;50.476;15.588;2023-02-22T16:46:53;3.00;;;1.40;;
73107;SDS011;61559;50.476;15.588;2023-02-22T16:49:25;1.80;;;1.00;;
73107;SDS011;61559;50.476;15.588;2023-02-22T16:51:57;2.70;;;1.30;;
73107;SDS011;61559;50.476;15.588;2023-02-22T16:54:34;7.90;;;4.90;;
73107;SDS011;61559;50.476;15.588;2023-02-22T16:57:13;21.00;;;13.00;;
73107;SDS011;61559;50.476;15.588;2023-02-22T16:59:48;3.80;;;2.40;;
73107;SDS011;61559;50.476;15.588;2023-02-22T17:02:23;11.90;;;7.60;;